sensor_id;sensor_type;location;lat;lon;timestamp;pressure;altitude;pressure_sealevel;temperature;humidity
66664;BME280;59683;51.428;-1.994;2023-05-03T06:21:12;101768.50;;;8.45;100.00
66664;BME280;59683;51.428;-1.994;2023-05-03T06:23:37;101763.94;;;8.98;100.00
66664;BME280;59683;51.428;-1.994;2023-05-03T06:26:04;101770.19;;;9.44;100.00
66664;BME280;59683;51.428;-1.994;2023-05-03T06:28:30;101768.38;;;9.91;100.00
66664;BME280;59683;51.428;-1.994;2023-05-03T06:30:55;101768.78;;;10.29;100.00
66664;BME280;59683;51.428;-1.994;2023-05-03T06:33:21;101770.31;;;10.33;100.00
66664;BME280;59683;51.428;-1.994;2023-05-03T06:35:46;101763.81;;;10.53;100.00
66664;BME280;59683;51.428;-1.994;2023-05-03T06:38:11;101767.78;;;10.75;100.00
66664;BME280;59683;51.428;-1.994;2023-05-03T06:40:37;101771.19;;;10.91;100.00
66664;BME280;59683;51.428;-1.994;2023-05-03T06:43:02;101775.72;;;11.03;100.00
66664;BME280;59683;51.428;-1.994;2023-05-03T06:45:28;101774.09;;;11.01;100.00
66664;BME280;59683;51.428;-1.994;2023-05-03T06:47:53;101774.38;;;11.10;100.00
66664;BME280;59683;51.428;-1.994;2023-05-03T06:50:19;101777.09;;;11.23;100.00
66664;BME280;59683;51.428;-1.994;2023-05-03T06:52:46;101773.88;;;11.32;100.00
66664;BME280;59683;51.428;-1.994;2023-05-03T06:55:11;101764.97;;;11.87;100.00
66664;BME280;59683;51.428;-1.994;2023-05-03T06:57:38;101766.25;;;11.95;100.00
66664;BME280;59683;51.428;-1.994;2023-05-03T07:00:03;101760.88;;;12.09;100.00
66664;BME280;59683;51.428;-1.994;2023-05-03T07:02:32;101768.03;;;12.34;100.00
66664;BME280;59683;51.428;-1.994;2023-05-03T07:04:58;101771.63;;;12.33;100.00
66664;BME280;59683;51.428;-1.994;2023-05-03T07:07:23;101770.34;;;12.51;100.00
66664;BME280;59683;51.428;-1.994;2023-05-03T07:09:48;101767.56;;;12.78;100.00
66664;BME280;59683;51.428;-1.994;2023-05-03T07:12:14;101761.78;;;13.10;100.00
66664;BME280;59683;51.428;-1.994;2023-05-03T07:14:40;101767.72;;;13.74;100.00
66664;BME280;59683;51.428;-1.994;2023-05-03T07:17:06;101768.97;;;13.81;100.00
66664;BME280;59683;51.428;-1.994;2023-05-03T07:19:32;101760.53;;;13.64;100.00
66664;BME280;59683;51.428;-1.994;2023-05-03T07:21:57;101757.13;;;13.85;100.00
66664;BME280;59683;51.428;-1.994;2023-05-03T07:24:23;101759.06;;;13.95;100.00
66664;BME280;59683;51.428;-1.994;2023-05-03T07:26:52;101762.88;;;14.03;100.00
66664;BME280;59683;51.428;-1.994;2023-05-03T07:29:17;101758.56;;;14.25;100.00
66664;BME280;59683;51.428;-1.994;2023-05-03T07:31:43;101753.00;;;14.28;100.00
66664;BME280;59683;51.428;-1.994;2023-05-03T15:04:48;101332.25;;;21.88;47.49
66664;BME280;59683;51.428;-1.994;2023-05-03T15:07:14;101325.88;;;22.12;46.47
66664;BME280;59683;51.428;-1.994;2023-05-03T15:09:39;101311.72;;;22.10;45.91
66664;BME280;59683;51.428;-1.994;2023-05-03T15:12:05;101310.28;;;21.76;48.59
66664;BME280;59683;51.428;-1.994;2023-05-03T15:14:31;101318.97;;;21.64;49.22
66664;BME280;59683;51.428;-1.994;2023-05-03T15:16:57;101316.44;;;21.23;49.00
66664;BME280;59683;51.428;-1.994;2023-05-03T15:19:22;101305.03;;;21.13;52.46
66664;BME280;59683;51.428;-1.994;2023-05-03T15:21:49;101314.31;;;21.02;51.81
66664;BME280;59683;51.428;-1.994;2023-05-03T15:24:16;101310.59;;;21.11;52.60
66664;BME280;59683;51.428;-1.994;2023-05-03T15:26:42;101309.69;;;21.27;51.22
66664;BME280;59683;51.428;-1.994;2023-05-03T15:29:09;101313.31;;;21.50;50.40
66664;BME280;59683;51.428;-1.994;2023-05-03T15:31:34;101301.69;;;21.50;48.89
66664;BME280;59683;51.428;-1.994;2023-05-03T15:34:00;101304.63;;;21.40;49.28
66664;BME280;59683;51.428;-1.994;2023-05-03T15:36:26;101294.59;;;21.09;49.28
66664;BME280;59683;51.428;-1.994;2023-05-03T15:38:52;101296.69;;;20.99;48.91
66664;BME280;59683;51.428;-1.994;2023-05-03T15:41:17;101295.03;;;20.90;52.78
66664;BME280;59683;51.428;-1.994;2023-05-03T15:43:44;101293.06;;;21.54;49.99
66664;BME280;59683;51.428;-1.994;2023-05-03T15:46:10;101294.94;;;21.54;48.86
66664;BME280;59683;51.428;-1.994;2023-05-03T15:48:35;101290.16;;;21.25;48.97
66664;BME280;59683;51.428;-1.994;2023-05-03T15:51:00;101296.78;;;20.67;51.27
66664;BME280;59683;51.428;-1.994;2023-05-03T15:53:26;101288.69;;;20.42;54.57
66664;BME280;59683;51.428;-1.994;2023-05-03T15:55:52;101287.88;;;20.42;51.54
66664;BME280;59683;51.428;-1.994;2023-05-03T15:58:22;101282.19;;;19.87;55.96
66664;BME280;59683;51.428;-1.994;2023-05-03T16:00:47;101277.44;;;19.73;56.77
66664;BME280;59683;51.428;-1.994;2023-05-03T16:03:13;101277.91;;;19.52;58.92
66664;BME280;59683;51.428;-1.994;2023-05-03T16:05:38;101273.97;;;19.30;64.10
66664;BME280;59683;51.428;-1.994;2023-05-03T16:08:04;101278.56;;;19.04;71.26
66664;BME280;59683;51.428;-1.994;2023-05-03T16:10:31;101281.50;;;18.84;70.44
66664;BME280;59683;51.428;-1.994;2023-05-03T16:12:57;101267.03;;;18.51;78.35
66664;BME280;59683;51.428;-1.994;2023-05-03T16:15:23;101273.47;;;18.14;83.76
66664;BME280;59683;51.428;-1.994;2023-05-03T16:17:48;101270.72;;;18.06;81.00
66664;BME280;59683;51.428;-1.994;2023-05-03T16:20:14;101266.34;;;18.05;87.11
66664;BME280;59683;51.428;-1.994;2023-05-03T16:22:39;101270.78;;;18.58;82.53
66664;BME280;59683;51.428;-1.994;2023-05-03T16:25:05;101265.16;;;19.04;78.74
66664;BME280;59683;51.428;-1.994;2023-05-03T16:27:32;101266.97;;;19.37;66.94
66664;BME280;59683;51.428;-1.994;2023-05-03T16:29:57;101264.91;;;19.31;76.34
66664;BME280;59683;51.428;-1.994;2023-05-03T16:32:24;101258.69;;;19.23;76.26
66664;BME280;59683;51.428;-1.994;2023-05-03T16:34:49;101256.09;;;19.05;73.50
66664;BME280;59683;51.428;-1.994;2023-05-03T16:37:14;101256.84;;;19.23;77.33
66664;BME280;59683;51.428;-1.994;2023-05-03T16:39:40;101260.25;;;19.33;69.64
66664;BME280;59683;51.428;-1.994;2023-05-03T16:42:05;101260.75;;;19.37;74.98
66664;BME280;59683;51.428;-1.994;2023-05-03T16:44:31;101260.63;;;19.04;72.97
66664;BME280;59683;51.428;-1.994;2023-05-03T16:46:56;101250.97;;;18.77;78.50
66664;BME280;59683;51.428;-1.994;2023-05-03T16:49:22;101246.75;;;18.75;79.67
66664;BME280;59683;51.428;-1.994;2023-05-03T16:51:47;101244.63;;;18.60;81.62
66664;BME280;59683;51.428;-1.994;2023-05-03T16:54:13;101255.09;;;18.72;78.33
66664;BME280;59683;51.428;-1.994;2023-05-03T16:56:44;101247.97;;;18.28;84.41
66664;BME280;59683;51.428;-1.994;2023-05-03T16:59:09;101243.53;;;18.01;85.62
66664;BME280;59683;51.428;-1.994;2023-05-03T17:01:35;101241.03;;;17.82;92.71
66664;BME280;59683;51.428;-1.994;2023-05-03T17:04:00;101235.34;;;17.67;93.44
66664;BME280;59683;51.428;-1.994;2023-05-03T17:06:26;101239.03;;;17.30;100.00
66664;BME280;59683;51.428;-1.994;2023-05-03T17:08:52;101229.88;;;17.05;100.00
66664;BME280;59683;51.428;-1.994;2023-05-03T17:11:18;101231.53;;;16.69;100.00
66664;BME280;59683;51.428;-1.994;2023-05-03T17:13:43;101220.97;;;16.40;100.00
66664;BME280;59683;51.428;-1.994;2023-05-03T17:16:11;101217.66;;;16.18;100.00
66664;BME280;59683;51.428;-1.994;2023-05-03T17:18:39;101230.34;;;15.87;100.00
66664;BME280;59683;51.428;-1.994;2023-05-03T17:21:05;101228.31;;;15.60;100.00
66664;BME280;59683;51.428;-1.994;2023-05-03T17:23:33;101225.78;;;15.39;100.00
66664;BME280;59683;51.428;-1.994;2023-05-03T17:26:01;101230.97;;;15.31;100.00
66664;BME280;59683;51.428;-1.994;2023-05-03T17:28:27;101224.63;;;15.22;100.00
66664;BME280;59683;51.428;-1.994;2023-05-03T17:30:52;101213.84;;;15.24;100.00
66664;BME280;59683;51.428;-1.994;2023-05-03T17:33:19;101212.34;;;15.00;100.00
66664;BME280;59683;51.428;-1.994;2023-05-03T17:35:45;101222.59;;;14.86;100.00
66664;BME280;59683;51.428;-1.994;2023-05-03T17:38:11;101212.13;;;14.63;100.00
66664;BME280;59683;51.428;-1.994;2023-05-03T17:40:36;101219.91;;;14.55;100.00
66664;BME280;59683;51.428;-1.994;2023-05-03T17:43:05;101214.72;;;14.53;100.00
66664;BME280;59683;51.428;-1.994;2023-05-03T17:45:31;101217.97;;;14.57;100.00
66664;BME280;59683;51.428;-1.994;2023-05-03T17:50:42;101206.88;;;14.52;100.00
66664;BME280;59683;51.428;-1.994;2023-05-03T17:53:08;101210.03;;;14.46;100.00
66664;BME280;59683;51.428;-1.994;2023-05-03T17:55:34;101208.16;;;14.37;100.00
66664;BME280;59683;51.428;-1.994;2023-05-03T17:58:00;101208.94;;;14.27;100.00
66664;BME280;59683;51.428;-1.994;2023-05-03T18:00:27;101206.28;;;14.27;100.00
66664;BME280;59683;51.428;-1.994;2023-05-03T18:02:52;101198.13;;;14.19;100.00
66664;BME280;59683;51.428;-1.994;2023-05-03T18:05:18;101214.56;;;14.03;100.00
66664;BME280;59683;51.428;-1.994;2023-05-03T18:07:43;101207.09;;;13.97;100.00
66664;BME280;59683;51.428;-1.994;2023-05-03T18:10:09;101207.97;;;13.87;100.00
66664;BME280;59683;51.428;-1.994;2023-05-03T18:12:39;101215.44;;;13.72;100.00
66664;BME280;59683;51.428;-1.994;2023-05-03T18:15:06;101215.47;;;13.60;100.00
66664;BME280;59683;51.428;-1.994;2023-05-03T18:17:32;101218.06;;;13.51;100.00
66664;BME280;59683;51.428;-1.994;2023-05-03T18:19:57;101214.31;;;13.42;100.00
66664;BME280;59683;51.428;-1.994;2023-05-03T18:22:23;101221.25;;;13.33;100.00
66664;BME280;59683;51.428;-1.994;2023-05-03T18:24:52;101226.47;;;13.24;100.00
66664;BME280;59683;51.428;-1.994;2023-05-03T18:27:23;101222.34;;;13.08;100.00
66664;BME280;59683;51.428;-1.994;2023-05-03T18:29:48;101217.06;;;12.97;100.00
66664;BME280;59683;51.428;-1.994;2023-05-03T18:32:14;101220.69;;;12.85;100.00
66664;BME280;59683;51.428;-1.994;2023-05-03T18:34:40;101220.59;;;12.75;100.00
66664;BME280;59683;51.428;-1.994;2023-05-03T18:37:05;101222.66;;;12.60;100.00
66664;BME280;59683;51.428;-1.994;2023-05-03T18:39:31;101225.16;;;12.51;100.00
66664;BME280;59683;51.428;-1.994;2023-05-03T18:41:57;101215.50;;;12.38;100.00
66664;BME280;59683;51.428;-1.994;2023-05-03T18:44:23;101204.97;;;12.26;100.00
66664;BME280;59683;51.428;-1.994;2023-05-03T18:46:52;101205.31;;;12.10;100.00
66664;BME280;59683;51.428;-1.994;2023-05-03T18:49:18;101199.97;;;11.99;100.00
66664;BME280;59683;51.428;-1.994;2023-05-03T18:51:44;101212.28;;;11.88;100.00
66664;BME280;59683;51.428;-1.994;2023-05-03T18:54:09;101216.19;;;11.83;100.00
66664;BME280;59683;51.428;-1.994;2023-05-03T18:56:35;101209.03;;;11.72;100.00
66664;BME280;59683;51.428;-1.994;2023-05-03T18:59:00;101212.88;;;11.68;100.00
66664;BME280;59683;51.428;-1.994;2023-05-03T19:01:26;101203.59;;;11.62;100.00
66664;BME280;59683;51.428;-1.994;2023-05-03T19:03:51;101204.03;;;11.56;100.00
66664;BME280;59683;51.428;-1.994;2023-05-03T19:06:17;101199.53;;;11.46;100.00
66664;BME280;59683;51.428;-1.994;2023-05-03T19:08:43;101198.75;;;11.32;100.00
66664;BME280;59683;51.428;-1.994;2023-05-03T19:11:12;101200.38;;;11.22;100.00
66664;BME280;59683;51.428;-1.994;2023-05-03T19:16:20;101177.25;;;11.00;100.00
66664;BME280;59683;51.428;-1.994;2023-05-03T19:18:45;101193.06;;;10.89;100.00
66664;BME280;59683;51.428;-1.994;2023-05-03T19:21:12;101184.31;;;10.76;100.00
66664;BME280;59683;51.428;-1.994;2023-05-03T19:23:41;101179.78;;;10.65;100.00
66664;BME280;59683;51.428;-1.994;2023-05-03T19:26:06;101176.28;;;10.52;100.00
66664;BME280;59683;51.428;-1.994;2023-05-03T19:31:54;101191.97;;;10.29;100.00
